Flight Track Log - Related Links

Times and Time Zones

All times are in EDT time to prevent confusion due to time zone crossing. See the BVN7571 flight status page for this flight to view local times or setup timezone preferences in your user account.

Time Position Orientation Groundspeed Altitude Reporting Facility
EDT Latitude Longitude Course Direction KTS MPH feet Rate Location/Type
Wed 08:05:40 PM 40.7283 -98.8956 76° East 124 143 4,800  Level Minneapolis Center
Wed 08:06:43 PM 40.7375 -98.8444 77° East 122 140 5,700 816 Climbing Minneapolis Center
Wed 08:07:45 PM 40.7467 -98.8000 75° East 123 142 6,500 677 Climbing Minneapolis Center
Wed 08:08:47 PM 40.7556 -98.7561 75° East 124 143 7,100 290 Climbing Minneapolis Center
Wed 08:09:49 PM 40.7653 -98.7053 76° East 131 151 7,100 -48 Level Minneapolis Center
Wed 08:10:51 PM 40.7783 -98.6375 76° East 147 169 7,000  Descending Minneapolis Center
Wed 08:11:00 PM 40.7941 -98.6431 76° East  Level FlightAware Approximate
Wed 08:11:53 PM 40.7900 -98.5833 74° East 152 175 7,100  Level Minneapolis Center
Wed 08:12:55 PM 40.8017 -98.5306 74° East 151 174 7,100  Level Minneapolis Center
Wed 08:14:09 PM 40.8122 -98.4769 75° East 151 174 7,100 -44 Level Minneapolis Center
Wed 08:15:12 PM 40.8242 -98.4108 77° East 153 176 7,000  Descending Minneapolis Center
Wed 08:16:14 PM 40.8356 -98.3564 75° East 154 177 7,100 48 Climbing Minneapolis Center
Wed 08:17:16 PM 40.8478 -98.2917 76° East 153 176 7,100 -48 Level Minneapolis Center
Wed 08:18:18 PM 40.8586 -98.2369 75° East 153 176 7,000 -49 Descending Minneapolis Center
Wed 08:19:19 PM 40.8683 -98.1933 74° East 154 177 7,000 48 Level Minneapolis Center
Wed 08:20:22 PM 40.8811 -98.1272 76° East 154 177 7,100 48 Climbing Minneapolis Center
Wed 08:21:24 PM 40.8917 -98.0719 76° East 155 178 7,100  Level Minneapolis Center
Wed 08:22:38 PM 40.9042 -98.0147 74° East 159 183 7,100 -44 Level Minneapolis Center
Wed 08:23:40 PM 40.9192 -97.9339 76° East 162 186 7,000 -48 Descending Minneapolis Center
Wed 08:24:42 PM 40.9300 -97.8747 76° East 164 189 7,000  Level Minneapolis Center
Wed 08:25:44 PM 40.9431 -97.8178 73° East 163 188 7,000 48 Level Minneapolis Center
Wed 08:26:46 PM 40.9531 -97.7603 77° East 162 186 7,100 48 Climbing Minneapolis Center
Wed 08:27:48 PM 40.9653 -97.6942 76° East 163 188 7,100  Level Minneapolis Center
Wed 08:28:50 PM 40.9758 -97.6428 75° East 165 190 7,100  Level Minneapolis Center
Wed 08:29:06 PM 40.9592 -97.6131 127° Southeast 164 189 7,100  Level Minneapolis Center
Wed 08:29:52 PM 40.9903 -97.5736 44° Northeast 163 188 7,100  Level Minneapolis Center
Wed 08:30:43 PM 40.9775 -97.5231 108° East 165 190 7,100  Level Minneapolis Center
Wed 08:31:31 PM 40.9875 -97.4728 75° East 166 191 7,100 -164 Level Minneapolis Center
Wed 08:31:56 PM 41.0131 -97.4547 28° Northeast 166 191 6,900 -689 Descending Minneapolis Center
Wed 08:32:32 PM 41.0008 -97.4108 110° East 179 206 6,400 -677 Descending Minneapolis Center
Wed 08:32:58 PM 41.0233 -97.3867 39° Northeast 183 211 6,200 -537 Descending Minneapolis Center
Wed 08:33:39 PM 41.0178 -97.3347 98° East 189 217 5,800 -484 Descending Minneapolis Center
Wed 08:34:00 PM 41.0406 -97.3150 33° Northeast 184 212 5,700 -455 Descending Minneapolis Center
Wed 08:34:45 PM 41.0328 -97.2669 102° East 181 208 5,300 -486 Descending Minneapolis Center
Wed 08:35:14 PM 41.0539 -97.2506 30° Northeast 183 211 5,100 -218 Descending Minneapolis Center
Wed 08:35:40 PM 41.0442 -97.2081 107° East 178 205 5,100  Level Minneapolis Center
Wed 08:36:16 PM 41.0678 -97.1756 46° Northeast 175 201 5,100  Level Minneapolis Center
Wed 08:37:18 PM 41.0789 -97.1194 75° East 163 188 5,100  Level Minneapolis Center
Wed 08:37:35 PM 41.0675 -97.0981 125° Southeast 159 183 5,100  Level Minneapolis Center
Wed 08:38:20 PM 41.0892 -97.0633 50° Northeast 158 182 5,100  Level Minneapolis Center
Wed 08:38:42 PM 41.0806 -97.0333 111° Southeast 159 183 5,100  Level Minneapolis Center
Wed 08:39:30 PM 41.0883 -96.9883 77° East 157 181 5,100  Level Minneapolis Center
Wed 08:40:24 PM 41.1119 -96.9389 58° Northeast 157 181 5,100  Level Minneapolis Center
Wed 08:41:38 PM 41.1247 -96.8719 76° East 157 181 5,100  Level Minneapolis Center
Wed 08:42:40 PM 41.1356 -96.8139 76° East 158 182 5,100  Level Minneapolis Center
Wed 08:43:39 PM 41.1356 -96.7569 90° East 157 181 5,100  Level Minneapolis Center
Wed 08:43:54 PM 41.1456 -96.7581 355° North 158 182 5,100  Level Minneapolis Center
Wed 08:44:40 PM 41.1469 -96.7003 88° East 158 182 5,100  Level Minneapolis Center
Wed 08:44:57 PM 41.1583 -96.6908 32° Northeast 157 181 5,100  Level Minneapolis Center
Wed 08:45:40 PM 41.1583 -96.6439 90° East 159 183 5,100  Level Minneapolis Center
Wed 08:45:59 PM 41.1689 -96.6339 35° Northeast 158 182 5,100  Level Minneapolis Center
Wed 08:46:41 PM 41.1694 -96.5872 89° East 158 182 5,100  Level Minneapolis Center
Wed 08:47:01 PM 41.1811 -96.5656 54° Northeast 158 182 5,100  Level Minneapolis Center
Wed 08:47:42 PM 41.1806 -96.5281 91° East 156 180 5,100 -290 Level Minneapolis Center
Wed 08:48:03 PM 41.1914 -96.5094 52° Northeast 157 181 4,800 -600 Descending Minneapolis Center
Wed 08:48:42 PM 41.1917 -96.4686 89° East 175 201 4,500 -387 Descending Minneapolis Center
Wed 08:49:05 PM 41.2022 -96.4492 54° Northeast 161 185 4,400 -436 Descending Minneapolis Center
Wed 08:49:37 PM 41.2028 -96.4150 89° East 172 198 4,100 -290 Descending Minneapolis Center
Wed 08:50:07 PM 41.2133 -96.3875 63° Northeast 167 192 4,100  Level Minneapolis Center
Wed 08:50:37 PM 41.2139 -96.3556 89° East 157 181 4,100  Level Minneapolis Center
Wed 08:51:09 PM 41.2247 -96.3314 59° Northeast 164 189 4,100  Level Minneapolis Center
Wed 08:51:44 PM 41.2269 -96.2961 85° East 153 176 4,100  Level Minneapolis Center
Wed 08:52:10 PM 41.2339 -96.2781 63° Northeast 158 182 4,100  Level Minneapolis Center
Wed 08:52:45 PM 41.2361 -96.2422 85° East 153 176 4,100  Level Minneapolis Center
Wed 08:53:24 PM 41.2458 -96.2125 66° East 153 176 4,100  Level Minneapolis Center
Wed 08:53:45 PM 41.2472 -96.1883 86° East 153 176 4,100  Level Minneapolis Center
Wed 08:54:27 PM 41.2569 -96.1478 72° East 152 175 4,100  Level Minneapolis Center
Wed 08:54:46 PM 41.2522 -96.1353 117° Southeast 146 168 4,100 -194 Level Minneapolis Center
Wed 08:55:29 PM 41.2503 -96.0944 94° East 149 171 3,900 -393 Descending Minneapolis Center
Wed 08:55:47 PM 41.2483 -96.0747 97° East 155 178 3,700 -484 Descending Minneapolis Center
Wed 08:56:31 PM 41.2506 -96.0372 85° East 152 175 3,400 -300 Descending Minneapolis Center
Wed 08:56:47 PM 41.2531 -96.0158 81° East 161 185 3,400 -387 Level Minneapolis Center
Wed 08:57:33 PM 41.2569 -95.9797 82° East 156 180 3,000 -716 Descending Minneapolis Center
Wed 08:57:54 PM 41.2636 -95.9536 71° East 164 189 2,600 -871 Descending Minneapolis Center
Wed 08:58:35 PM 41.2706 -95.9108 78° East 161 185 2,100 -787 Descending Minneapolis Center
Wed 08:58:55 PM 41.2789 -95.9019 39° Northeast 151 174 1,800 -871 Descending Minneapolis Center
Wed 08:59:37 PM 41.2961 -95.8900 28° Northeast 141 162 1,200 -857 Descending Minneapolis Center
Wed 09:01:00 PM 41.3000 -95.8833 North  Level FlightAware Approximate

Login

Don't have an account? Register now (free) for customized features, flight alerts, and more!